Time;durP1;ratioP1;P1;durP2;ratioP2;P2;SDS_P1;SDS_P2;PMS_P1;PMS_P2;Temp;Humidity;BMP_temperature;BMP_pressure;BME280_temperature;BME280_humidity;BME280_pressure;Samples;Min_cycle;Max_cycle;Signal;HPM_P1;HPM_P2
2022/12/11 11:56:36;;;;;;;22.75;12.80;;;17.30;99.90;;;;;;5629380;23;20048;-92
2022/12/11 11:59:12;;;;;;;28.48;14.13;;;17.40;99.90;;;;;;4883949;29;20576;-91
2022/12/11 12:01:42;;;;;;;28.50;14.07;;;17.30;99.90;;;;;;4885743;29;20074;-90
2022/12/11 12:04:10;;;;;;;25.77;12.98;;;17.40;99.90;;;;;;4871144;29;20025;-90
2022/12/11 12:06:45;;;;;;;28.13;14.07;;;17.40;99.90;;;;;;4882657;29;20079;-92
2022/12/11 12:09:32;;;;;;;29.20;14.27;;;17.30;99.90;;;;;;4882273;29;20035;-92
2022/12/11 12:12:21;;;;;;;24.20;14.10;;;17.30;99.90;;;;;;4870336;29;20506;-95
2022/12/11 12:14:59;;;;;;;21.83;13.57;;;17.30;99.90;;;;;;4894723;29;20076;-95
2022/12/11 12:17:46;;;;;;;23.58;14.13;;;17.40;99.90;;;;;;4889725;29;20033;-95
2022/12/11 12:20:40;;;;;;;22.30;14.40;;;17.40;99.90;;;;;;4876079;29;20138;-92
2022/12/11 12:23:45;;;;;;;18.10;14.45;;;17.30;99.90;;;;;;4895409;29;20032;-94
2022/12/11 12:26:24;;;;;;;;;;;17.20;99.90;;;;;;4891394;29;20092;-94
2022/12/11 12:29:18;;;;;;;26.95;15.35;;;17.20;99.90;;;;;;4889074;29;19955;-93
2022/12/11 12:32:11;;;;;;;20.63;16.38;;;17.20;99.90;;;;;;4890668;29;20035;-93
2022/12/11 12:35:42;;;;;;;;;;;;;;;;;;;;;
2022/12/11 12:41:51;;;;;;;23.83;14.70;;;17.00;99.90;;;;;;4866778;29;20057;-94
2022/12/11 12:44:30;;;;;;;24.58;15.43;;;17.10;99.90;;;;;;4763030;30;20524;-92
2022/12/11 12:47:31;;;;;;;30.75;15.40;;;17.20;99.90;;;;;;4782782;30;20039;-94
2022/12/11 12:55:12;;;;;;;27.92;16.25;;;17.10;99.90;;;;;;4659598;30;20110;-93
2022/12/11 13:01:19;;;;;;;25.67;15.68;;;17.00;99.90;;;;;;4628454;30;20097;-92
2022/12/11 13:04:40;;;;;;;27.15;16.60;;;16.80;99.90;;;;;;4638096;30;20058;-94
2022/12/11 13:07:17;;;;;;;28.65;17.50;;;16.90;99.90;;;;;;4620302;31;20067;-92
2022/12/11 13:10:07;;;;;;;29.80;16.77;;;16.90;99.90;;;;;;4620471;31;20079;-92
2022/12/11 13:12:45;;;;;;;34.50;17.98;;;16.90;99.90;;;;;;4621896;31;20482;-93
2022/12/11 13:15:39;;;;;;;27.50;18.20;;;16.90;99.90;;;;;;4629688;31;20519;-92
2022/12/11 13:18:40;;;;;;;35.88;17.40;;;16.90;99.90;;;;;;4634795;31;20052;-92
2022/12/11 13:21:24;;;;;;;28.67;16.13;;;17.00;99.90;;;;;;4640282;30;20054;-91
2022/12/11 13:23:51;;;;;;;24.73;15.73;;;16.90;99.90;;;;;;4666764;30;20521;-92
2022/12/11 13:26:32;;;;;;;28.70;16.45;;;16.80;99.90;;;;;;4659609;30;20104;-93
2022/12/11 13:28:59;;;;;;;34.17;17.30;;;16.70;99.90;;;;;;4687763;30;20044;-92
2022/12/11 13:31:37;;;;;;;28.92;16.02;;;16.70;99.90;;;;;;4801523;29;20038;-95
2022/12/11 13:34:23;;;;;;;29.83;15.57;;;16.60;99.90;;;;;;4810527;29;20395;-93
2022/12/11 13:36:52;;;;;;;26.95;15.90;;;16.50;99.90;;;;;;4794844;29;20099;-94
2022/12/11 13:39:33;;;;;;;25.65;14.63;;;16.40;99.90;;;;;;4816027;29;20068;-93
2022/12/11 13:42:07;;;;;;;23.40;15.32;;;16.30;99.90;;;;;;4845473;29;20538;-93
2022/12/11 13:44:40;;;;;;;24.17;15.40;;;16.20;99.90;;;;;;4849238;29;20026;-93
2022/12/11 13:47:17;;;;;;;29.55;15.35;;;16.10;99.90;;;;;;4845021;29;20473;-92
2022/12/11 13:49:48;;;;;;;26.02;15.32;;;16.00;99.90;;;;;;4844366;29;20053;-93
2022/12/11 13:52:27;;;;;;;26.30;15.07;;;16.00;99.90;;;;;;4843681;29;20046;-93
2022/12/11 13:55:03;;;;;;;26.90;15.75;;;15.90;99.90;;;;;;4845664;29;20090;-92
2022/12/11 13:57:30;;;;;;;22.30;15.80;;;15.90;99.90;;;;;;4843179;29;20050;-92
2022/12/11 13:59:58;;;;;;;25.30;16.50;;;15.90;99.90;;;;;;4843022;29;20113;-92
2022/12/11 14:02:34;;;;;;;25.05;17.52;;;15.90;99.90;;;;;;4842857;29;20049;-93
2022/12/11 14:05:11;;;;;;;21.45;15.68;;;15.80;99.90;;;;;;4843296;29;20036;-93
2022/12/11 14:07:47;;;;;;;21.33;15.98;;;15.80;99.90;;;;;;4843202;29;20042;-92
2022/12/11 14:10:21;;;;;;;22.02;16.23;;;15.80;99.90;;;;;;4842862;29;20074;-92
2022/12/11 14:13:05;;;;;;;20.95;15.85;;;15.80;99.90;;;;;;4842645;29;20465;-91
2022/12/11 14:15:34;;;;;;;25.25;16.33;;;15.70;99.90;;;;;;4842540;29;20051;-91
2022/12/11 14:18:02;;;;;;;23.40;16.27;;;15.60;99.90;;;;;;4846234;29;20061;-90
2022/12/11 14:20:32;;;;;;;25.58;15.85;;;15.60;99.90;;;;;;4846355;29;20029;-91
2022/12/11 14:23:18;;;;;;;25.65;15.52;;;15.50;99.90;;;;;;4846898;29;20033;-92
2022/12/11 14:26:01;;;;;;;26.05;16.00;;;15.50;99.90;;;;;;4847114;29;20120;-94
2022/12/11 14:28:40;;;;;;;24.88;15.65;;;15.40;99.90;;;;;;4846163;29;20037;-94
2022/12/11 14:31:07;;;;;;;26.58;15.38;;;15.40;99.90;;;;;;4846254;29;20499;-93
2022/12/11 14:33:43;;;;;;;26.27;15.57;;;15.30;99.90;;;;;;4846254;29;20116;-93
2022/12/11 14:36:10;;;;;;;30.88;15.63;;;15.30;99.90;;;;;;4846148;29;20037;-93
2022/12/11 14:39:01;;;;;;;31.15;16.25;;;15.20;99.90;;;;;;4845810;29;20054;-90
2022/12/11 14:41:44;;;;;;;34.17;16.13;;;15.20;99.90;;;;;;4830716;29;20041;-93
2022/12/11 14:44:15;;;;;;;25.67;15.93;;;15.20;99.90;;;;;;4846611;29;20037;-92
2022/12/11 14:46:51;;;;;;;31.25;16.98;;;15.10;99.90;;;;;;4846101;29;20491;-93
2022/12/11 14:49:52;;;;;;;27.52;15.55;;;15.10;99.90;;;;;;4846874;29;20479;-92
2022/12/11 14:52:48;;;;;;;27.92;15.65;;;15.00;99.90;;;;;;4826730;29;20044;-92
2022/12/11 14:55:33;;;;;;;36.35;16.42;;;14.90;99.90;;;;;;4839546;29;20035;-92
2022/12/11 14:58:45;;;;;;;24.52;15.75;;;14.80;99.90;;;;;;4825990;29;20129;-92
2022/12/11 15:01:33;;;;;;;36.08;17.33;;;14.70;99.90;;;;;;4783622;24;20052;-90
2022/12/11 15:04:24;;;;;;;34.38;16.58;;;14.70;99.90;;;;;;4898408;29;20036;-91
2022/12/11 15:06:51;;;;;;;32.75;17.02;;;14.60;99.90;;;;;;4882072;29;20132;-91
2022/12/11 15:09:35;;;;;;;24.23;15.93;;;14.60;99.90;;;;;;4882559;29;20486;-93
2022/12/11 15:12:15;;;;;;;18.45;16.08;;;14.60;99.90;;;;;;4882754;29;20064;-91
2022/12/11 15:14:56;;;;;;;30.42;17.05;;;14.60;99.90;;;;;;4882624;29;20032;-91
2022/12/11 15:17:24;;;;;;;26.00;16.80;;;14.60;99.90;;;;;;4882721;29;20035;-92
2022/12/11 15:20:10;;;;;;;30.38;17.63;;;14.50;99.90;;;;;;4882574;29;20028;-92
2022/12/11 15:22:37;;;;;;;26.27;16.20;;;14.50;99.90;;;;;;4882746;29;20060;-93
2022/12/11 15:25:04;;;;;;;19.65;16.35;;;14.40;99.90;;;;;;4882955;29;20475;-93
2022/12/11 15:27:39;;;;;;;27.15;17.00;;;14.40;99.90;;;;;;4869146;29;20032;-92
2022/12/11 15:30:18;;;;;;;;;;;14.30;99.90;;;;;;4883785;29;20491;-92
2022/12/11 15:32:45;;;;;;;24.70;16.85;;;14.30;99.90;;;;;;4882389;29;20034;-92
2022/12/11 15:35:26;;;;;;;24.92;17.95;;;14.30;99.90;;;;;;4882326;29;20435;-93
2022/12/11 15:37:54;;;;;;;32.92;17.20;;;14.20;99.90;;;;;;4897996;29;20036;-91
2022/12/11 15:40:21;;;;;;;25.00;17.40;;;14.20;99.90;;;;;;4866937;29;20060;-90
2022/12/11 15:42:49;;;;;;;23.77;16.35;;;14.10;99.90;;;;;;4882370;29;20035;-93
2022/12/11 15:45:22;;;;;;;28.67;18.33;;;14.10;99.90;;;;;;4898318;29;20115;-92
2022/12/11 15:47:50;;;;;;;28.17;17.52;;;14.10;99.90;;;;;;4900242;29;20128;-92
2022/12/11 15:50:28;;;;;;;26.67;17.17;;;14.00;99.90;;;;;;4885839;29;20112;-94
2022/12/11 15:52:56;;;;;;;28.35;18.20;;;14.00;99.90;;;;;;4886186;29;20053;-93
2022/12/11 15:55:25;;;;;;;25.83;17.15;;;14.00;99.90;;;;;;4901895;29;20032;-92
2022/12/11 15:58:02;;;;;;;28.17;17.10;;;14.00;99.90;;;;;;4885974;29;20028;-92
2022/12/11 16:00:29;;;;;;;25.08;17.40;;;14.00;99.90;;;;;;4901475;29;20096;-94
2022/12/11 16:02:57;;;;;;;29.10;17.67;;;14.00;99.90;;;;;;4885712;29;20079;-93
2022/12/11 16:05:24;;;;;;;24.90;17.25;;;13.90;99.90;;;;;;4885601;29;20029;-93
2022/12/11 16:07:52;;;;;;;33.38;17.52;;;13.90;99.90;;;;;;4901436;29;20494;-91
2022/12/11 16:10:21;;;;;;;24.33;17.10;;;13.90;99.90;;;;;;4885683;29;20115;-92
2022/12/11 16:12:47;;;;;;;24.52;17.52;;;13.90;99.90;;;;;;4901133;29;20032;-90
2022/12/11 16:15:14;;;;;;;25.55;16.80;;;13.80;99.90;;;;;;4886038;29;20060;-93
2022/12/11 16:17:41;;;;;;;31.80;17.80;;;13.70;99.90;;;;;;4901172;29;20032;-92
2022/12/11 16:20:10;;;;;;;30.55;18.20;;;13.70;99.90;;;;;;4885471;29;20032;-91
2022/12/11 16:22:36;;;;;;;24.77;18.83;;;13.60;99.90;;;;;;4885665;29;20136;-92
2022/12/11 16:25:04;;;;;;;28.48;18.52;;;13.50;99.90;;;;;;4885540;29;20036;-92
2022/12/11 16:27:31;;;;;;;28.20;18.75;;;13.50;99.90;;;;;;4869855;29;20033;-93
2022/12/11 16:29:57;;;;;;;30.00;20.90;;;13.50;99.90;;;;;;4885379;29;20127;-93
2022/12/11 16:32:24;;;;;;;33.50;20.65;;;13.40;99.90;;;;;;4900900;29;20041;-93
2022/12/11 16:34:51;;;;;;;31.35;20.42;;;13.30;99.90;;;;;;4885856;29;20390;-92
2022/12/11 16:37:17;;;;;;;31.63;20.13;;;13.30;99.90;;;;;;4900991;29;20036;-91
2022/12/11 16:39:45;;;;;;;27.98;18.73;;;13.30;99.90;;;;;;4885263;29;20029;-92
2022/12/11 16:42:12;;;;;;;24.77;16.95;;;13.20;99.90;;;;;;4900646;29;20051;-92
2022/12/11 16:44:38;;;;;;;30.80;17.98;;;13.20;99.90;;;;;;4885033;29;20107;-91
2022/12/11 16:47:05;;;;;;;27.80;17.73;;;13.20;99.90;;;;;;4885281;29;20032;-93
2022/12/11 16:49:31;;;;;;;29.27;18.63;;;13.20;99.90;;;;;;4900626;29;20447;-91
2022/12/11 16:51:58;;;;;;;33.63;19.63;;;13.20;99.90;;;;;;4884873;29;20028;-94
2022/12/11 16:54:24;;;;;;;26.15;18.25;;;13.20;99.90;;;;;;4884564;29;20494;-92
2022/12/11 16:56:50;;;;;;;26.70;18.00;;;13.20;99.90;;;;;;4884682;29;20029;-93
2022/12/11 16:59:17;;;;;;;22.70;18.00;;;13.20;99.90;;;;;;4884871;29;20033;-91
2022/12/11 17:01:45;;;;;;;23.02;17.85;;;13.20;99.90;;;;;;4884839;29;20075;-93
2022/12/11 17:04:11;;;;;;;29.50;18.80;;;13.20;99.90;;;;;;4900313;29;20036;-91
2022/12/11 17:06:37;;;;;;;30.20;17.85;;;13.10;99.90;;;;;;4884945;29;20044;-94
2022/12/11 17:09:04;;;;;;;29.58;16.90;;;13.10;99.90;;;;;;4900304;29;20039;-93
2022/12/11 17:11:30;;;;;;;25.15;16.55;;;13.10;99.90;;;;;;4884814;29;20040;-92
2022/12/11 17:13:58;;;;;;;27.77;18.42;;;13.10;99.90;;;;;;4885051;29;20116;-93
2022/12/11 17:16:29;;;;;;;27.55;18.45;;;13.10;99.90;;;;;;4884408;29;20040;-92
2022/12/11 17:18:57;;;;;;;28.38;17.55;;;13.10;99.90;;;;;;4884363;29;20029;-91
2022/12/11 17:21:23;;;;;;;24.35;16.90;;;13.10;99.90;;;;;;4899947;29;20075;-93
2022/12/11 17:23:50;;;;;;;20.70;16.60;;;13.00;99.90;;;;;;4884504;29;20033;-92
2022/12/11 17:26:17;;;;;;;26.40;17.23;;;13.00;99.90;;;;;;4884143;29;20035;-92
2022/12/11 17:28:44;;;;;;;25.83;16.35;;;13.00;99.90;;;;;;4884379;29;20123;-93
2022/12/11 17:31:16;;;;;;;24.77;16.17;;;13.00;99.90;;;;;;4899893;29;20028;-93
2022/12/11 17:33:44;;;;;;;34.25;17.20;;;13.00;99.90;;;;;;4900331;29;20040;-92
2022/12/11 17:36:14;;;;;;;26.50;17.02;;;13.00;99.90;;;;;;4884058;29;20483;-92
2022/12/11 17:38:41;;;;;;;26.33;16.58;;;13.00;99.90;;;;;;4884472;29;20040;-91
2022/12/11 17:41:09;;;;;;;23.95;15.57;;;13.00;99.90;;;;;;4886950;29;20410;-92
2022/12/11 17:43:36;;;;;;;22.38;15.80;;;13.10;99.90;;;;;;4903864;29;20059;-91
2022/12/11 17:46:04;;;;;;;27.27;16.40;;;13.10;99.90;;;;;;4887731;29;20029;-92
2022/12/11 17:48:31;;;;;;;27.38;16.73;;;13.20;99.90;;;;;;4884380;29;20028;-90
2022/12/11 17:51:02;;;;;;;26.00;17.08;;;13.20;99.90;;;;;;4899205;29;20510;-91
2022/12/11 17:53:29;;;;;;;23.80;17.38;;;13.20;99.90;;;;;;4883998;29;20052;-91
2022/12/11 17:55:59;;;;;;;22.52;16.48;;;13.20;99.90;;;;;;4883643;29;20029;-91
2022/12/11 17:58:26;;;;;;;23.55;17.10;;;13.20;99.90;;;;;;4883815;29;20482;-92
2022/12/11 18:00:54;;;;;;;22.92;18.48;;;13.20;99.90;;;;;;4883656;29;20061;-91
2022/12/11 18:03:21;;;;;;;27.08;17.83;;;13.10;99.90;;;;;;4883587;29;20080;-92
2022/12/11 18:05:50;;;;;;;27.73;18.52;;;13.10;99.90;;;;;;4883698;29;20024;-92
2022/12/11 18:08:19;;;;;;;23.73;18.52;;;13.10;99.90;;;;;;4883546;29;20052;-92
2022/12/11 18:10:45;;;;;;;20.13;17.85;;;13.10;99.90;;;;;;4867451;29;20104;-91
2022/12/11 18:13:13;;;;;;;24.92;18.17;;;13.00;99.90;;;;;;4898950;29;20037;-92
2022/12/11 18:15:40;;;;;;;22.50;16.77;;;13.00;99.90;;;;;;4883845;29;20081;-93
2022/12/11 18:18:07;;;;;;;24.17;17.77;;;12.90;99.90;;;;;;4898992;29;20495;-92
2022/12/11 18:20:34;;;;;;;30.23;18.92;;;12.80;99.90;;;;;;4883279;29;20036;-91
2022/12/11 18:23:01;;;;;;;40.08;22.95;;;12.70;99.90;;;;;;4883086;29;20092;-91
2022/12/11 18:25:27;;;;;;;32.67;23.45;;;12.70;99.90;;;;;;4883423;29;20096;-91
2022/12/11 18:27:54;;;;;;;32.83;23.17;;;12.60;99.90;;;;;;4898550;29;20566;-91
2022/12/11 18:30:22;;;;;;;27.92;20.45;;;12.50;99.90;;;;;;4883260;29;20028;-91
2022/12/11 18:32:49;;;;;;;26.50;18.42;;;12.50;99.90;;;;;;4883101;29;20061;-92
2022/12/11 18:35:16;;;;;;;29.63;18.52;;;12.50;99.90;;;;;;4882984;29;20028;-92
2022/12/11 18:37:43;;;;;;;20.98;16.48;;;12.40;99.90;;;;;;4898569;29;20048;-92
2022/12/11 18:40:11;;;;;;;26.02;16.88;;;12.40;99.90;;;;;;4882949;29;20024;-92
2022/12/11 18:42:37;;;;;;;19.10;14.77;;;12.40;99.90;;;;;;4898283;29;20044;-91
2022/12/11 18:45:05;;;;;;;21.30;14.02;;;12.40;99.90;;;;;;4883510;29;20033;-94
2022/12/11 18:47:32;;;;;;;22.80;12.82;;;12.40;99.90;;;;;;4883514;29;20119;-94
2022/12/11 18:49:58;;;;;;;23.00;12.63;;;12.40;99.90;;;;;;4883215;29;20032;-92
2022/12/11 18:52:25;;;;;;;19.10;12.80;;;12.50;99.90;;;;;;4882902;29;20080;-91
2022/12/11 18:54:51;;;;;;;23.77;12.57;;;12.50;99.90;;;;;;4882702;29;20029;-93
2022/12/11 18:57:17;;;;;;;23.20;12.93;;;12.50;99.90;;;;;;4882796;29;20036;-94
2022/12/11 19:00:01;;;;;;;;;;;;;;;;;;;;;
2022/12/11 19:02:34;;;;;;;11.80;10.50;;;12.50;99.90;;;;;;4886558;24;20109;-93
2022/12/11 19:05:01;;;;;;;16.63;10.10;;;12.60;99.90;;;;;;4869594;29;20081;-94
2022/12/11 19:07:37;;;;;;;19.65;12.98;;;12.60;99.90;;;;;;4868262;29;20064;-95
2022/12/11 19:13:15;;;;;;;18.38;11.70;;;12.60;99.90;;;;;;4990366;24;20091;-94
2022/12/11 19:15:42;;;;;;;18.70;10.88;;;12.60;99.90;;;;;;4878144;23;20036;-95
2022/12/11 19:18:09;;;;;;;12.82;10.60;;;12.50;99.90;;;;;;4902337;29;20126;-94
2022/12/11 19:20:47;;;;;;;20.15;10.30;;;12.50;99.90;;;;;;4889368;29;20037;-95
2022/12/11 19:23:14;;;;;;;20.65;10.40;;;12.50;99.90;;;;;;4901261;29;20385;-93
2022/12/11 19:25:46;;;;;;;19.52;11.32;;;12.50;99.90;;;;;;4924716;24;20052;-94
2022/12/11 19:28:13;;;;;;;14.52;10.73;;;12.40;99.90;;;;;;4852870;29;20415;-93
2022/12/11 19:30:45;;;;;;;26.80;10.45;;;12.30;99.90;;;;;;4854577;29;20027;-94
2022/12/11 19:33:16;;;;;;;17.13;10.82;;;12.30;99.90;;;;;;4853652;29;20406;-94
2022/12/11 19:35:43;;;;;;;16.95;10.70;;;12.20;99.90;;;;;;4852770;29;20136;-94
2022/12/11 19:38:18;;;;;;;19.75;11.57;;;12.20;99.90;;;;;;4861147;29;20033;-94
2022/12/11 19:41:29;;;;;;;;;;;;;;;;;;;;;
2022/12/11 19:47:00;;;;;;;22.75;12.50;;;12.20;99.90;;;;;;4844153;29;20110;-93
2022/12/11 19:49:27;;;;;;;17.00;10.85;;;12.20;99.90;;;;;;4812137;29;20476;-94
2022/12/11 19:52:23;;;;;;;16.55;10.25;;;12.10;99.90;;;;;;4835861;29;20094;-94
2022/12/11 19:54:50;;;;;;;19.10;10.48;;;12.00;99.90;;;;;;4821466;29;20034;-94
2022/12/11 19:57:21;;;;;;;25.95;12.43;;;11.80;99.90;;;;;;4830744;29;20087;-94
2022/12/11 19:59:51;;;;;;;18.63;10.55;;;11.70;99.90;;;;;;4847659;24;20057;-95
2022/12/11 20:02:26;;;;;;;24.95;10.55;;;11.70;99.90;;;;;;4856790;29;20050;-94
2022/12/11 20:04:56;;;;;;;21.85;11.25;;;11.50;99.90;;;;;;4859014;29;20570;-93
2022/12/11 20:07:28;;;;;;;24.20;11.27;;;11.40;99.90;;;;;;4844029;29;20034;-93
2022/12/11 20:09:54;;;;;;;26.20;10.32;;;11.30;99.90;;;;;;4851686;29;20025;-93
2022/12/11 20:12:20;;;;;;;24.80;11.40;;;11.20;99.90;;;;;;4845330;29;20036;-94
2022/12/11 20:47:25;;;;;;;16.88;8.20;;;11.10;99.90;;;;;;5638516;23;20473;-95
2022/12/11 20:49:52;;;;;;;18.55;8.02;;;11.20;99.90;;;;;;4889348;29;20032;-94
2022/12/11 20:52:19;;;;;;;22.45;9.63;;;11.10;99.90;;;;;;4874325;29;20027;-94
2022/12/11 20:54:49;;;;;;;19.30;10.15;;;11.10;99.90;;;;;;4874529;29;20056;-94
2022/12/11 23:00:36;;;;;;;21.25;8.20;;;9.50;99.90;;;;;;5672755;23;20027;31
2022/12/11 23:03:07;;;;;;;22.75;8.15;;;9.40;99.90;;;;;;4834951;29;20109;-92
2022/12/11 23:05:34;;;;;;;16.35;7.20;;;9.40;99.90;;;;;;4835014;29;20037;-93
2022/12/11 23:49:01;;;;;;;26.88;9.73;;;9.30;99.90;;;;;;3703147;23;20336;-94
2022/12/11 23:51:28;;;;;;;18.55;9.02;;;9.20;99.90;;;;;;4829182;29;20084;-94
2022/12/11 23:53:55;;;;;;;20.98;8.55;;;9.20;99.90;;;;;;4828199;29;20041;-95
2022/12/11 23:56:25;;;;;;;22.20;8.02;;;9.20;99.90;;;;;;4827422;29;20030;-94
2022/12/11 23:58:52;;;;;;;14.75;7.50;;;9.20;99.90;;;;;;4827420;29;20030;-94
